Time;durP1;ratioP1;P1;durP2;ratioP2;P2;SDS_P1;SDS_P2;PMS_P1;PMS_P2;Temp;Humidity;BMP_temperature;BMP_pressure;BME280_temperature;BME280_humidity;BME280_pressure;Samples;Min_cycle;Max_cycle;Signal;HPM_P1;HPM_P2
2022/07/22 00:00:47;;;;;;;13.20;2.00;;;16.70;99.90;;;;;;4980566;28;20027;-86
2022/07/22 00:03:12;;;;;;;9.68;1.48;;;16.70;99.90;;;;;;4998995;28;20033;-85
2022/07/22 00:05:38;;;;;;;6.93;2.08;;;16.70;99.90;;;;;;4994342;28;20368;-86
2022/07/22 00:08:04;;;;;;;8.35;1.52;;;16.70;99.90;;;;;;4994791;28;20067;-86
2022/07/22 00:10:29;;;;;;;7.32;1.48;;;16.70;99.90;;;;;;4986533;28;20799;-86
2022/07/22 00:12:55;;;;;;;5.82;1.17;;;16.70;99.90;;;;;;4984294;28;20033;-86
2022/07/22 00:15:20;;;;;;;10.65;1.77;;;16.70;99.90;;;;;;4980907;28;20034;-86
2022/07/22 00:17:47;;;;;;;9.68;2.28;;;16.70;99.90;;;;;;4997176;28;20023;-86
2022/07/22 00:20:12;;;;;;;3.70;1.60;;;16.70;99.90;;;;;;4989239;28;20706;-86
2022/07/22 00:22:38;;;;;;;7.60;2.08;;;16.70;99.90;;;;;;4988592;28;20022;-86
2022/07/22 00:25:04;;;;;;;9.82;2.95;;;16.70;99.90;;;;;;4988331;28;20414;-86
2022/07/22 00:27:29;;;;;;;8.48;2.42;;;16.60;99.90;;;;;;4996400;28;20053;-86
2022/07/22 00:29:55;;;;;;;8.80;2.08;;;16.60;99.90;;;;;;4983335;28;20076;-86
2022/07/22 00:32:20;;;;;;;10.93;2.45;;;16.60;99.90;;;;;;4979401;28;20030;-86
2022/07/22 00:34:46;;;;;;;7.70;2.70;;;16.70;99.90;;;;;;4981175;28;20034;-86
2022/07/22 00:37:11;;;;;;;9.23;2.67;;;16.60;99.90;;;;;;4976914;28;20022;-86
2022/07/22 00:39:37;;;;;;;10.00;2.60;;;16.60;99.90;;;;;;4992126;28;20038;-86
2022/07/22 00:42:03;;;;;;;9.40;2.38;;;16.60;99.90;;;;;;4995050;28;20025;-86
2022/07/22 00:44:28;;;;;;;7.82;2.63;;;16.60;99.90;;;;;;4996154;28;20030;-86
2022/07/22 00:46:54;;;;;;;10.90;3.25;;;16.60;99.90;;;;;;4999481;28;20038;-86
2022/07/22 00:49:20;;;;;;;7.88;3.13;;;16.60;99.90;;;;;;4995121;28;20027;-86
2022/07/22 00:51:46;;;;;;;10.82;2.67;;;16.60;99.90;;;;;;4984982;28;20085;-87
2022/07/22 00:54:11;;;;;;;8.85;2.60;;;16.60;99.90;;;;;;4985875;28;20093;-86
2022/07/22 00:56:37;;;;;;;6.78;2.63;;;16.60;99.90;;;;;;4988761;28;20101;-87
2022/07/22 00:59:07;;;;;;;8.00;2.53;;;16.60;99.90;;;;;;4999790;28;20030;-86
2022/07/22 01:01:33;;;;;;;11.45;3.25;;;16.60;99.90;;;;;;4988237;28;20030;-86
2022/07/22 01:03:59;;;;;;;12.02;2.05;;;16.60;99.90;;;;;;4997813;28;20467;-87
2022/07/22 01:06:24;;;;;;;8.45;2.28;;;16.60;99.90;;;;;;4987977;28;20035;-86
2022/07/22 01:08:50;;;;;;;10.48;2.42;;;16.60;99.90;;;;;;4985541;28;20042;-87
2022/07/22 01:11:18;;;;;;;6.60;1.85;;;16.60;99.90;;;;;;4999540;28;20049;-87
2022/07/22 01:13:45;;;;;;;8.02;2.03;;;16.60;99.90;;;;;;4983047;28;20032;-87
2022/07/22 01:16:11;;;;;;;7.05;1.60;;;16.60;99.90;;;;;;4988457;28;20092;-87
2022/07/22 01:18:38;;;;;;;8.88;1.95;;;16.70;99.90;;;;;;5003239;28;20027;-87
2022/07/22 01:21:05;;;;;;;7.65;1.42;;;16.70;99.90;;;;;;4989427;28;20101;-87
2022/07/22 01:23:30;;;;;;;7.65;1.27;;;16.70;99.90;;;;;;4984245;28;20471;-87
2022/07/22 01:25:56;;;;;;;7.13;1.90;;;16.70;99.90;;;;;;5003709;28;20126;-87
2022/07/22 01:28:23;;;;;;;6.93;1.35;;;16.70;99.90;;;;;;4989128;28;20036;-88
2022/07/22 01:30:49;;;;;;;5.82;1.35;;;16.70;99.90;;;;;;4990292;28;20129;-87
2022/07/22 01:33:19;;;;;;;11.73;1.60;;;16.60;99.90;;;;;;4998335;28;20530;-87
2022/07/22 01:35:45;;;;;;;7.50;2.15;;;16.70;99.90;;;;;;4986185;28;20039;-87
2022/07/22 01:38:11;;;;;;;8.88;1.80;;;16.70;99.90;;;;;;4987294;28;20034;-87
2022/07/22 01:40:37;;;;;;;7.75;1.55;;;16.70;99.90;;;;;;4989608;28;20481;-87
2022/07/22 01:43:03;;;;;;;7.78;1.67;;;16.70;99.90;;;;;;4990776;28;20022;-87
2022/07/22 01:45:28;;;;;;;5.75;1.48;;;16.70;99.90;;;;;;5002422;28;20096;-87
2022/07/22 01:47:54;;;;;;;8.20;1.27;;;16.70;99.90;;;;;;4984541;28;20127;-88
2022/07/22 01:50:19;;;;;;;7.97;1.60;;;16.70;99.90;;;;;;5004254;28;20029;-87
2022/07/22 01:52:45;;;;;;;5.80;1.25;;;16.70;99.90;;;;;;5001854;28;20065;-87
2022/07/22 01:55:12;;;;;;;4.82;1.50;;;16.70;99.90;;;;;;4989373;28;20371;-87
2022/07/22 01:57:38;;;;;;;7.57;1.42;;;16.70;99.90;;;;;;4988890;28;20026;-88
2022/07/22 02:00:08;;;;;;;6.10;1.15;;;16.70;99.90;;;;;;4985562;28;20019;-87
2022/07/22 02:02:35;;;;;;;7.00;1.33;;;16.70;99.90;;;;;;4989936;28;20027;-87
2022/07/22 02:05:02;;;;;;;9.18;1.20;;;16.70;99.90;;;;;;4983885;28;20022;-87
2022/07/22 02:07:28;;;;;;;4.72;1.30;;;16.70;99.90;;;;;;4988536;28;20042;-87
2022/07/22 02:09:54;;;;;;;8.02;1.02;;;16.60;99.90;;;;;;5004045;28;20073;-87
2022/07/22 02:12:19;;;;;;;7.43;1.17;;;16.60;99.90;;;;;;4988174;28;20085;-87
2022/07/22 02:14:45;;;;;;;7.82;1.13;;;16.60;99.90;;;;;;4985670;28;20029;-86
2022/07/22 02:17:11;;;;;;;3.75;1.25;;;16.60;99.90;;;;;;4984450;28;20230;-87
2022/07/22 02:19:37;;;;;;;9.68;1.58;;;16.60;99.90;;;;;;5007051;28;20023;-87
2022/07/22 02:22:02;;;;;;;8.27;1.60;;;16.60;99.90;;;;;;4991230;28;20497;-87
2022/07/22 02:24:28;;;;;;;8.60;1.15;;;16.60;99.90;;;;;;4990916;28;20061;-87
2022/07/22 02:26:54;;;;;;;9.20;1.63;;;16.60;99.90;;;;;;5007001;28;20030;-87
2022/07/22 02:29:19;;;;;;;7.28;1.13;;;16.50;99.90;;;;;;4989469;28;20023;-87
2022/07/22 02:31:45;;;;;;;5.18;1.08;;;16.50;99.90;;;;;;5004649;28;20030;-87
2022/07/22 02:34:10;;;;;;;7.40;1.17;;;16.50;99.90;;;;;;4987554;28;20026;-87
2022/07/22 02:36:36;;;;;;;8.27;1.25;;;16.50;99.90;;;;;;4995368;28;20124;-87
2022/07/22 02:39:03;;;;;;;7.05;1.77;;;16.40;99.90;;;;;;4995439;28;20046;-87
2022/07/22 02:41:29;;;;;;;5.97;1.00;;;16.40;99.90;;;;;;4992131;28;20038;-87
2022/07/22 02:43:54;;;;;;;5.78;1.00;;;16.40;99.90;;;;;;5005729;28;20351;-87
2022/07/22 02:46:24;;;;;;;6.53;1.38;;;16.40;99.90;;;;;;5000716;28;20030;-87
2022/07/22 02:48:50;;;;;;;4.30;0.90;;;16.40;99.90;;;;;;4992775;28;20022;-87
2022/07/22 02:51:15;;;;;;;7.22;0.90;;;16.40;99.90;;;;;;4990634;28;20089;-87
2022/07/22 02:53:41;;;;;;;5.63;1.05;;;16.40;99.90;;;;;;5005649;28;20027;-86
2022/07/22 02:56:07;;;;;;;4.93;1.13;;;16.30;99.90;;;;;;4989032;28;20034;-87
2022/07/22 02:58:32;;;;;;;13.88;1.10;;;16.30;99.90;;;;;;4992155;28;20026;-86
2022/07/22 03:00:58;;;;;;;6.00;0.90;;;16.30;99.90;;;;;;5002757;28;20022;-86
2022/07/22 03:03:23;;;;;;;4.38;1.10;;;16.30;99.90;;;;;;4983020;28;20065;-87
2022/07/22 03:05:49;;;;;;;5.22;1.00;;;16.30;99.90;;;;;;4991688;28;20387;-87
2022/07/22 03:08:15;;;;;;;12.45;1.42;;;16.30;99.90;;;;;;4992419;28;20057;-86
2022/07/22 03:10:41;;;;;;;5.20;1.20;;;16.30;99.90;;;;;;4990010;28;20536;-86
2022/07/22 03:13:06;;;;;;;5.03;1.27;;;16.30;99.90;;;;;;4991153;28;20030;-87
2022/07/22 03:15:32;;;;;;;6.15;1.50;;;16.30;99.90;;;;;;4989782;28;20055;-86
2022/07/22 03:17:58;;;;;;;4.53;0.77;;;16.30;99.90;;;;;;5006119;28;20033;-87
2022/07/22 03:20:23;;;;;;;7.03;1.20;;;16.30;99.90;;;;;;4992818;28;20030;-86
2022/07/22 03:22:49;;;;;;;7.78;1.10;;;16.30;99.90;;;;;;4988799;28;20026;-86
2022/07/22 03:25:14;;;;;;;5.68;1.13;;;16.30;99.90;;;;;;5002121;28;20042;-86
2022/07/22 03:27:40;;;;;;;4.03;1.52;;;16.30;99.90;;;;;;4987545;28;20046;-86
2022/07/22 03:30:06;;;;;;;4.10;0.90;;;16.20;99.90;;;;;;4986838;28;20126;-86
2022/07/22 03:32:32;;;;;;;10.18;1.40;;;16.20;99.90;;;;;;4986032;28;20131;-86
2022/07/22 03:34:57;;;;;;;4.82;1.02;;;16.20;99.90;;;;;;4987721;28;20119;-86
2022/07/22 03:37:23;;;;;;;5.30;1.10;;;16.10;99.90;;;;;;4984257;28;20038;-86
2022/07/22 03:39:48;;;;;;;8.85;1.38;;;16.10;99.90;;;;;;4987887;28;20057;-86
2022/07/22 03:42:14;;;;;;;7.28;1.35;;;16.20;99.90;;;;;;4986057;28;20498;-86
2022/07/22 03:44:40;;;;;;;3.70;0.98;;;16.10;99.90;;;;;;4989697;28;20117;-86
2022/07/22 03:47:05;;;;;;;3.85;1.05;;;16.10;99.90;;;;;;4986468;28;20092;-87
2022/07/22 03:49:32;;;;;;;7.22;1.38;;;16.10;99.90;;;;;;4987551;28;20122;-87
2022/07/22 03:51:58;;;;;;;5.50;0.93;;;16.10;99.90;;;;;;4987284;28;20045;-86
2022/07/22 03:54:23;;;;;;;5.57;1.05;;;16.10;99.90;;;;;;4988593;28;20105;-86
2022/07/22 03:56:49;;;;;;;4.68;1.00;;;16.10;99.90;;;;;;4987896;28;20113;-86
2022/07/22 03:59:15;;;;;;;3.35;1.13;;;16.10;99.90;;;;;;4988672;28;20031;-86
2022/07/22 04:01:41;;;;;;;8.68;2.35;;;16.10;99.90;;;;;;4983956;28;20087;-86
2022/07/22 04:04:06;;;;;;;9.07;1.02;;;16.20;99.90;;;;;;4988245;28;20023;-86
2022/07/22 04:06:32;;;;;;;3.42;0.90;;;16.20;99.90;;;;;;4987431;28;20023;-87
2022/07/22 04:08:58;;;;;;;5.43;0.93;;;16.20;99.90;;;;;;4987546;28;20054;-87
2022/07/22 04:11:23;;;;;;;3.53;0.93;;;16.20;99.90;;;;;;4988405;28;20701;-87
2022/07/22 04:13:49;;;;;;;2.85;0.93;;;16.20;99.90;;;;;;4986175;28;20022;-87
2022/07/22 04:16:14;;;;;;;6.40;0.80;;;16.30;99.90;;;;;;4988013;28;20122;-87
2022/07/22 04:18:40;;;;;;;7.05;1.08;;;16.30;99.90;;;;;;4993287;28;20495;-86
2022/07/22 04:21:06;;;;;;;3.15;1.00;;;16.30;99.90;;;;;;4988529;28;20041;-86
2022/07/22 04:23:31;;;;;;;5.93;1.20;;;16.30;99.90;;;;;;4986094;28;20077;-87
2022/07/22 04:25:57;;;;;;;7.57;1.00;;;16.30;99.90;;;;;;4989411;28;20030;-87
2022/07/22 04:28:22;;;;;;;4.25;0.90;;;16.40;99.90;;;;;;4988555;28;20023;-87
2022/07/22 04:30:48;;;;;;;5.30;0.85;;;16.40;99.90;;;;;;4982343;28;20062;-87
2022/07/22 04:33:13;;;;;;;6.65;0.95;;;16.40;99.90;;;;;;4990845;28;20054;-88
2022/07/22 04:35:39;;;;;;;3.30;0.80;;;16.40;99.90;;;;;;5002912;28;20035;-87
2022/07/22 04:38:05;;;;;;;6.30;1.10;;;16.50;99.90;;;;;;4988168;28;20371;-88
2022/07/22 04:40:30;;;;;;;2.85;0.85;;;16.50;99.90;;;;;;4989491;28;20053;-88
2022/07/22 04:42:56;;;;;;;3.38;0.70;;;16.50;99.90;;;;;;5005068;28;20022;-88
2022/07/22 04:45:21;;;;;;;5.00;1.15;;;16.50;99.90;;;;;;4988395;28;20438;-87
2022/07/22 04:47:47;;;;;;;2.85;0.75;;;16.60;99.90;;;;;;5003269;28;20038;-88
2022/07/22 04:50:12;;;;;;;3.95;1.45;;;16.60;99.90;;;;;;4987731;28;20065;-87
2022/07/22 04:52:38;;;;;;;3.47;0.80;;;16.60;99.90;;;;;;4987006;28;20060;-87
2022/07/22 04:55:04;;;;;;;5.38;1.40;;;16.60;99.90;;;;;;4986047;28;20458;-88
2022/07/22 04:57:30;;;;;;;2.35;1.00;;;16.70;99.90;;;;;;4987057;28;20023;-87
2022/07/22 04:59:56;;;;;;;3.65;0.85;;;16.70;99.90;;;;;;4986994;28;20076;-86
2022/07/22 05:02:21;;;;;;;6.63;1.35;;;16.70;99.90;;;;;;4987807;28;20073;-87
2022/07/22 05:04:47;;;;;;;13.23;1.73;;;16.80;99.90;;;;;;5002828;28;20030;-87
2022/07/22 05:07:12;;;;;;;4.35;1.08;;;16.80;99.90;;;;;;4988481;28;20069;-87
2022/07/22 05:09:38;;;;;;;4.93;1.38;;;16.90;99.90;;;;;;4989849;28;20471;-87
2022/07/22 05:12:04;;;;;;;5.85;1.40;;;16.90;99.90;;;;;;4988845;28;20069;-86
2022/07/22 05:14:30;;;;;;;7.15;1.95;;;16.90;99.90;;;;;;4989534;28;20427;-86
2022/07/22 05:16:57;;;;;;;6.80;1.42;;;17.00;99.90;;;;;;4987818;28;20052;-87
2022/07/22 05:19:22;;;;;;;2.45;0.80;;;17.10;99.90;;;;;;4988634;28;20018;-86
2022/07/22 05:21:48;;;;;;;3.88;1.05;;;17.10;99.90;;;;;;4987353;28;20076;-86
2022/07/22 05:24:14;;;;;;;5.32;1.20;;;17.10;99.90;;;;;;4989240;28;20435;-86
2022/07/22 05:26:39;;;;;;;7.03;1.40;;;17.10;99.90;;;;;;4980500;28;20109;-86
2022/07/22 05:29:05;;;;;;;4.18;1.15;;;17.20;99.90;;;;;;4986377;28;20429;-87
2022/07/22 05:31:30;;;;;;;6.50;1.38;;;17.30;99.90;;;;;;4984108;28;20027;-87
2022/07/22 05:33:56;;;;;;;6.45;2.10;;;17.30;99.90;;;;;;4985847;28;20030;-87
2022/07/22 05:36:22;;;;;;;7.60;1.95;;;17.40;99.90;;;;;;5003042;28;20208;-87
2022/07/22 05:38:47;;;;;;;4.28;1.83;;;17.40;99.90;;;;;;5007848;28;20042;-86
2022/07/22 05:41:13;;;;;;;9.85;2.78;;;17.50;99.90;;;;;;4987842;28;20044;-86
2022/07/22 05:43:39;;;;;;;6.13;2.35;;;17.50;99.90;;;;;;4986684;28;20027;-87
2022/07/22 05:46:05;;;;;;;5.82;2.03;;;17.60;99.90;;;;;;4988641;28;20145;-87
2022/07/22 05:48:30;;;;;;;4.43;1.50;;;17.60;99.90;;;;;;4986980;28;20022;-86
2022/07/22 05:50:56;;;;;;;6.60;1.60;;;17.70;99.90;;;;;;4990719;28;20030;-87
2022/07/22 05:53:21;;;;;;;7.40;1.70;;;17.70;99.90;;;;;;4985380;28;20027;-86
2022/07/22 05:55:47;;;;;;;6.03;1.98;;;17.70;99.90;;;;;;4985508;28;20088;-87
2022/07/22 05:58:13;;;;;;;4.70;1.20;;;17.80;99.90;;;;;;4999580;28;20435;-87
2022/07/22 06:00:39;;;;;;;7.80;1.80;;;17.80;99.90;;;;;;4988976;28;20022;-88
2022/07/22 06:03:05;;;;;;;6.68;1.20;;;17.80;99.90;;;;;;4987894;28;20077;-87
2022/07/22 06:05:31;;;;;;;4.80;0.90;;;17.80;99.90;;;;;;4988304;28;20022;-87
2022/07/22 06:07:56;;;;;;;3.45;1.17;;;17.80;99.90;;;;;;4988138;28;20030;-88
2022/07/22 06:10:22;;;;;;;5.68;1.17;;;17.90;99.90;;;;;;4999821;28;20540;-87
2022/07/22 06:12:47;;;;;;;4.72;1.20;;;18.00;99.90;;;;;;4981716;28;20398;-87
2022/07/22 06:15:13;;;;;;;3.65;1.00;;;18.00;99.90;;;;;;4987406;28;20394;-87
2022/07/22 06:17:38;;;;;;;5.22;0.70;;;18.00;99.90;;;;;;4981677;28;20022;-88
2022/07/22 06:20:05;;;;;;;3.83;0.80;;;18.10;99.90;;;;;;4995823;28;20499;-87
2022/07/22 06:22:30;;;;;;;4.60;0.80;;;18.20;99.90;;;;;;4994593;28;20034;-87
2022/07/22 06:24:56;;;;;;;4.25;0.85;;;18.30;99.90;;;;;;4987732;28;20026;-88
2022/07/22 06:27:21;;;;;;;2.00;0.43;;;18.40;99.90;;;;;;5013400;28;20034;-88
2022/07/22 06:29:47;;;;;;;3.30;0.50;;;18.50;99.90;;;;;;5006228;28;20038;-88
2022/07/22 06:32:12;;;;;;;2.30;0.60;;;18.50;99.90;;;;;;4985895;28;20026;-88
2022/07/22 06:34:38;;;;;;;3.10;0.70;;;18.50;99.90;;;;;;4990796;28;20109;-89
2022/07/22 06:37:04;;;;;;;2.38;0.60;;;18.50;99.90;;;;;;4990187;28;20138;-90
2022/07/22 06:39:29;;;;;;;2.53;0.50;;;18.60;99.90;;;;;;4980442;28;20050;-88
2022/07/22 06:41:55;;;;;;;5.65;0.73;;;18.60;99.90;;;;;;4984629;28;20035;-89
2022/07/22 06:44:20;;;;;;;4.45;1.20;;;18.60;99.90;;;;;;4984283;28;20380;-89
2022/07/22 06:46:46;;;;;;;6.90;0.50;;;18.70;99.90;;;;;;4980864;28;20035;-91
2022/07/22 06:49:11;;;;;;;4.32;0.50;;;18.80;99.90;;;;;;4999736;28;20023;-89
2022/07/22 06:51:37;;;;;;;5.25;0.40;;;18.90;99.90;;;;;;5001094;28;20101;-89
2022/07/22 06:54:03;;;;;;;2.50;0.40;;;19.00;99.90;;;;;;4982628;28;20483;-88
2022/07/22 06:56:28;;;;;;;3.53;0.40;;;19.00;99.90;;;;;;4995172;28;20077;-89
2022/07/22 06:58:54;;;;;;;3.45;0.75;;;19.10;99.90;;;;;;4982508;28;20053;-89
2022/07/22 07:01:19;;;;;;;2.75;0.47;;;19.20;99.90;;;;;;4997515;28;20041;-90
2022/07/22 07:03:45;;;;;;;5.32;0.52;;;19.20;99.90;;;;;;4991524;28;20561;-90
2022/07/22 07:06:11;;;;;;;5.65;0.57;;;19.30;99.90;;;;;;4992757;28;20383;-88
2022/07/22 07:08:40;;;;;;;4.63;0.70;;;19.30;99.90;;;;;;4994561;28;20470;-83
2022/07/22 07:11:06;;;;;;;4.65;0.60;;;19.40;99.90;;;;;;4988021;28;20062;-86
2022/07/22 07:13:32;;;;;;;3.53;0.98;;;19.40;99.90;;;;;;4991225;28;20073;-86
2022/07/22 07:15:57;;;;;;;7.40;0.60;;;19.40;99.90;;;;;;4994006;28;20030;-88
2022/07/22 07:18:23;;;;;;;7.47;0.70;;;19.60;99.90;;;;;;4990407;28;20487;-88
2022/07/22 07:20:49;;;;;;;49.83;2.78;;;19.60;99.90;;;;;;4996555;28;20045;-88
2022/07/22 07:23:15;;;;;;;6.72;0.75;;;19.70;99.90;;;;;;4994807;28;20145;-88
2022/07/22 07:25:41;;;;;;;4.30;0.50;;;19.80;99.90;;;;;;4993542;28;20052;-89
2022/07/22 07:28:07;;;;;;;4.32;0.40;;;19.90;99.90;;;;;;5002108;28;20117;-88
2022/07/22 07:30:32;;;;;;;5.85;0.47;;;19.90;99.90;;;;;;4996069;28;20057;-89
2022/07/22 07:33:00;;;;;;;2.65;0.45;;;19.90;99.90;;;;;;4993334;28;20070;-90
2022/07/22 07:35:26;;;;;;;8.38;0.25;;;19.90;99.90;;;;;;4994787;28;20095;-90
2022/07/22 07:37:52;;;;;;;3.97;1.20;;;19.90;99.90;;;;;;5010320;28;20034;-90
2022/07/22 07:40:17;;;;;;;3.03;0.40;;;19.90;99.90;;;;;;4991633;28;20050;-90
2022/07/22 07:42:43;;;;;;;1.67;0.30;;;20.00;99.90;;;;;;4990882;28;20030;-89
2022/07/22 07:45:08;;;;;;;2.83;0.40;;;20.10;99.90;;;;;;5009228;28;20049;-89
2022/07/22 07:47:34;;;;;;;3.70;0.50;;;20.20;99.90;;;;;;4994937;28;20058;-88
2022/07/22 07:50:02;;;;;;;1.80;0.35;;;20.20;99.90;;;;;;4983558;28;20037;-88
2022/07/22 07:52:27;;;;;;;3.05;0.30;;;20.30;99.90;;;;;;4994950;28;20086;-88
2022/07/22 07:54:55;;;;;;;2.42;0.30;;;20.40;99.90;;;;;;4996275;28;20046;-88
2022/07/22 07:57:21;;;;;;;1.48;0.30;;;20.40;99.90;;;;;;4997785;28;20047;-87
2022/07/22 07:59:47;;;;;;;1.98;0.75;;;20.50;99.90;;;;;;4981050;28;20041;-87
2022/07/22 08:02:13;;;;;;;3.00;0.28;;;20.60;99.90;;;;;;4993260;28;20026;-88
2022/07/22 08:04:38;;;;;;;1.92;0.30;;;20.60;99.90;;;;;;4994003;28;20026;-88
2022/07/22 08:07:05;;;;;;;1.80;0.30;;;20.70;99.90;;;;;;4992775;28;20034;-88
2022/07/22 08:09:32;;;;;;;2.42;0.50;;;20.80;99.90;;;;;;5007301;28;20125;-87
2022/07/22 08:11:57;;;;;;;2.55;0.35;;;20.90;99.90;;;;;;4992841;28;20190;-85
2022/07/22 08:14:23;;;;;;;1.95;0.30;;;20.90;99.90;;;;;;4995374;28;20158;-85
2022/07/22 08:16:49;;;;;;;3.55;0.85;;;21.00;99.90;;;;;;4994705;28;20041;-85
2022/07/22 08:19:15;;;;;;;2.78;0.45;;;21.00;99.90;;;;;;4995129;28;20134;-85
2022/07/22 08:21:41;;;;;;;2.38;0.20;;;21.10;99.90;;;;;;4995827;28;20038;-85
2022/07/22 08:24:09;;;;;;;2.17;0.20;;;21.20;99.90;;;;;;4994303;28;20034;-86
2022/07/22 08:26:34;;;;;;;3.30;0.30;;;21.30;99.90;;;;;;5002528;28;20036;-86
2022/07/22 08:29:00;;;;;;;3.67;0.25;;;21.50;99.90;;;;;;4991083;28;20054;-86
2022/07/22 08:31:27;;;;;;;3.28;0.50;;;21.70;99.80;;;;;;4989464;28;20031;-85
2022/07/22 08:33:53;;;;;;;3.08;0.43;;;22.00;99.40;;;;;;4994083;28;20046;-86
2022/07/22 08:36:18;;;;;;;2.08;0.30;;;22.20;98.80;;;;;;4991676;28;20073;-86
2022/07/22 08:38:44;;;;;;;1.33;0.20;;;22.30;98.20;;;;;;4998301;28;20138;-86
2022/07/22 08:41:13;;;;;;;4.32;0.30;;;22.50;97.80;;;;;;4984025;28;20034;-86
2022/07/22 08:43:43;;;;;;;4.00;0.50;;;22.50;97.00;;;;;;4989838;28;20026;-86
2022/07/22 08:46:09;;;;;;;3.25;0.30;;;22.70;96.90;;;;;;4984457;28;20027;-86
2022/07/22 08:48:37;;;;;;;2.65;0.50;;;22.70;96.20;;;;;;4994977;28;20029;-87
2022/07/22 08:51:02;;;;;;;2.30;0.30;;;22.70;95.90;;;;;;4993381;28;20026;-86
2022/07/22 08:53:28;;;;;;;1.63;0.30;;;22.70;95.60;;;;;;4992759;28;20027;-86
2022/07/22 08:55:53;;;;;;;1.90;0.20;;;22.70;95.60;;;;;;4995000;28;20117;-86
2022/07/22 08:58:19;;;;;;;2.53;0.40;;;22.60;95.30;;;;;;4994760;28;20030;-87
2022/07/22 09:00:45;;;;;;;1.35;0.30;;;22.40;95.40;;;;;;4985145;28;20530;-86
2022/07/22 09:03:22;;;;;;;1.38;0.40;;;22.20;95.60;;;;;;4993472;28;20036;-86
2022/07/22 09:05:49;;;;;;;3.50;0.40;;;22.10;95.80;;;;;;4995127;28;20089;-86
2022/07/22 09:08:14;;;;;;;3.28;0.30;;;22.00;95.90;;;;;;4994720;28;20125;-86
2022/07/22 09:10:40;;;;;;;1.77;0.40;;;21.90;96.10;;;;;;4994029;28;20050;-87
2022/07/22 09:13:08;;;;;;;1.92;0.22;;;21.90;96.00;;;;;;4993105;28;20038;-85
2022/07/22 09:15:37;;;;;;;3.58;0.50;;;21.90;96.20;;;;;;4993897;28;20041;-84
2022/07/22 09:18:05;;;;;;;2.53;0.40;;;21.90;96.30;;;;;;4986913;28;20564;-85
2022/07/22 09:20:31;;;;;;;3.60;0.38;;;21.90;96.10;;;;;;4992641;28;20059;-85
2022/07/22 09:22:57;;;;;;;2.63;0.40;;;21.90;96.00;;;;;;4993017;28;20426;-85
2022/07/22 09:25:31;;;;;;;2.25;0.30;;;22.00;95.70;;;;;;4989631;28;20022;-85
2022/07/22 09:28:09;;;;;;;4.45;0.35;;;22.00;95.40;;;;;;4993416;28;20042;-84
2022/07/22 09:30:47;;;;;;;2.10;0.30;;;21.90;95.40;;;;;;4982226;28;20031;-85
2022/07/22 09:33:13;;;;;;;4.80;0.30;;;21.80;95.40;;;;;;4994541;28;20030;-85
2022/07/22 09:35:40;;;;;;;4.68;0.50;;;21.80;95.60;;;;;;4994670;28;20126;-85
2022/07/22 09:38:07;;;;;;;2.33;0.55;;;21.80;95.60;;;;;;4989456;28;20062;-84
2022/07/22 09:40:35;;;;;;;2.85;0.50;;;21.90;95.40;;;;;;4992175;28;20621;-85
2022/07/22 09:43:14;;;;;;;5.22;0.95;;;22.00;95.40;;;;;;4993865;28;20038;-84
2022/07/22 09:45:56;;;;;;;2.35;0.60;;;22.00;95.30;;;;;;4992437;28;20484;-85
2022/07/22 09:48:23;;;;;;;2.08;0.30;;;22.00;95.20;;;;;;4994209;28;20022;-84
2022/07/22 09:50:50;;;;;;;3.42;0.40;;;22.00;95.20;;;;;;4988427;28;20026;-84
2022/07/22 09:53:21;;;;;;;2.60;0.40;;;21.90;94.70;;;;;;5000700;28;20038;-83
2022/07/22 09:55:47;;;;;;;2.80;0.50;;;21.90;94.90;;;;;;4986248;28;20038;-84
2022/07/22 09:58:13;;;;;;;1.50;0.40;;;21.90;95.20;;;;;;4991415;28;20034;-85
2022/07/22 10:00:40;;;;;;;1.80;0.40;;;22.00;95.50;;;;;;4977232;28;20039;-85
2022/07/22 10:03:08;;;;;;;4.63;0.50;;;22.00;95.20;;;;;;4987715;28;20030;-84
2022/07/22 10:05:39;;;;;;;4.15;0.57;;;22.00;95.00;;;;;;4977038;28;20050;-85
2022/07/22 10:08:06;;;;;;;4.32;0.60;;;22.10;95.40;;;;;;4991627;28;20030;-84
2022/07/22 10:10:34;;;;;;;2.20;0.60;;;22.40;95.50;;;;;;4986574;28;20461;-84
2022/07/22 10:13:01;;;;;;;3.85;0.50;;;22.80;94.50;;;;;;4988111;28;20034;-84
2022/07/22 10:15:28;;;;;;;2.45;0.70;;;22.90;94.00;;;;;;4979482;28;20038;-84
2022/07/22 10:17:56;;;;;;;2.83;0.60;;;22.90;93.50;;;;;;4990662;28;20031;-84
2022/07/22 10:20:24;;;;;;;3.47;0.50;;;23.00;93.30;;;;;;4992712;28;20033;-84
2022/07/22 10:23:05;;;;;;;4.07;0.68;;;23.00;93.60;;;;;;4987736;28;20121;-84
2022/07/22 10:25:32;;;;;;;2.28;0.60;;;22.90;93.20;;;;;;4981017;28;20030;-84
2022/07/22 10:28:04;;;;;;;3.22;0.57;;;22.80;93.20;;;;;;4992494;28;20031;-84
2022/07/22 10:30:35;;;;;;;2.08;0.50;;;22.70;93.00;;;;;;4989420;28;20030;-84
2022/07/22 10:33:07;;;;;;;3.42;0.50;;;22.70;93.40;;;;;;4990098;28;20052;-83
2022/07/22 10:35:35;;;;;;;1.90;0.60;;;22.70;93.40;;;;;;4987297;28;20066;-83
2022/07/22 10:38:06;;;;;;;3.25;0.57;;;22.60;93.40;;;;;;4990142;28;20398;-89
2022/07/22 10:40:47;;;;;;;2.47;0.55;;;22.60;93.70;;;;;;5010094;28;20042;-89
2022/07/22 10:43:14;;;;;;;5.10;0.60;;;22.60;93.70;;;;;;5012925;28;20034;-90
2022/07/22 10:45:46;;;;;;;3.22;0.63;;;22.70;93.50;;;;;;4993043;28;20076;-90
2022/07/22 10:48:22;;;;;;;3.88;0.60;;;22.80;93.30;;;;;;5000879;28;20028;-90
2022/07/22 10:50:50;;;;;;;4.95;1.08;;;23.00;93.30;;;;;;4999520;28;20034;-88
2022/07/22 10:53:19;;;;;;;5.10;0.60;;;23.10;93.10;;;;;;5007732;28;20030;-92
2022/07/22 10:56:06;;;;;;;3.10;0.70;;;23.40;92.80;;;;;;4999529;28;20503;-87
2022/07/22 10:58:32;;;;;;;3.00;0.52;;;23.80;92.50;;;;;;4981881;28;20050;-88
2022/07/22 11:01:03;;;;;;;3.70;0.50;;;24.10;92.50;;;;;;4990440;28;20025;-87
2022/07/22 11:03:30;;;;;;;2.70;0.50;;;24.40;91.90;;;;;;5011465;28;20481;-87
2022/07/22 11:05:59;;;;;;;2.60;0.40;;;24.70;91.00;;;;;;4993580;28;20149;-89
2022/07/22 11:08:25;;;;;;;2.95;0.50;;;24.90;90.50;;;;;;4997062;28;20030;-86
2022/07/22 11:10:51;;;;;;;5.05;0.82;;;25.10;90.50;;;;;;4996647;28;20034;-87
2022/07/22 11:13:37;;;;;;;4.05;0.70;;;25.00;89.90;;;;;;4996596;28;20509;-87
2022/07/22 11:16:21;;;;;;;2.22;0.50;;;24.50;90.00;;;;;;4998355;28;20045;-87
2022/07/22 11:18:58;;;;;;;3.97;0.68;;;24.20;90.60;;;;;;4988782;28;20054;-89
2022/07/22 11:21:27;;;;;;;3.92;0.60;;;24.00;90.90;;;;;;5001009;28;20023;-89
2022/07/22 11:23:55;;;;;;;2.00;0.63;;;23.80;91.00;;;;;;4996437;28;20022;-87
2022/07/22 11:26:39;;;;;;;2.10;0.60;;;23.70;90.90;;;;;;5014546;28;20037;-88
2022/07/22 11:29:05;;;;;;;1.33;0.57;;;23.60;91.30;;;;;;4995148;28;20023;-87
2022/07/22 11:31:30;;;;;;;2.92;0.77;;;23.50;91.40;;;;;;4982412;28;20113;-89
2022/07/22 11:34:10;;;;;;;2.90;0.60;;;23.40;91.40;;;;;;4988075;28;20030;-88
2022/07/22 11:36:38;;;;;;;4.93;0.70;;;23.40;91.30;;;;;;4991314;28;20117;-88
2022/07/22 11:39:04;;;;;;;3.90;0.70;;;23.50;91.20;;;;;;4998295;28;20062;-90
2022/07/22 11:41:30;;;;;;;3.17;0.60;;;23.40;91.10;;;;;;4994799;28;20026;-89
2022/07/22 11:43:57;;;;;;;2.78;0.70;;;23.40;91.00;;;;;;5006326;28;20486;-89
2022/07/22 11:46:25;;;;;;;1.80;0.50;;;23.30;90.60;;;;;;4986182;28;20034;-89
2022/07/22 11:48:52;;;;;;;3.45;0.80;;;23.30;90.80;;;;;;4998082;28;20029;-88
2022/07/22 11:51:17;;;;;;;2.75;0.77;;;23.30;90.70;;;;;;4997148;28;20481;-90
2022/07/22 11:53:43;;;;;;;3.67;0.50;;;23.30;91.20;;;;;;5004124;28;20080;-90
2022/07/22 11:56:10;;;;;;;4.45;0.60;;;23.40;90.80;;;;;;4991819;28;20037;-89
2022/07/22 11:58:40;;;;;;;3.72;0.65;;;23.40;90.70;;;;;;4998560;28;20054;-90
2022/07/22 12:01:08;;;;;;;3.75;0.70;;;23.50;90.50;;;;;;5013671;28;20032;-89
2022/07/22 12:03:36;;;;;;;3.13;0.60;;;23.60;90.10;;;;;;5011730;28;20033;-90
2022/07/22 12:06:05;;;;;;;2.85;0.77;;;23.50;90.00;;;;;;4990627;28;20030;-90
2022/07/22 12:08:31;;;;;;;5.95;0.70;;;23.50;89.80;;;;;;4986739;28;20030;-88
2022/07/22 12:10:57;;;;;;;4.50;0.70;;;23.40;89.70;;;;;;4984850;28;20428;-90
2022/07/22 12:13:29;;;;;;;5.57;1.35;;;23.50;89.60;;;;;;5003716;28;20026;-89
2022/07/22 12:15:54;;;;;;;2.80;0.57;;;23.60;88.90;;;;;;4997854;28;20041;-89
2022/07/22 12:18:23;;;;;;;3.22;0.50;;;23.70;88.20;;;;;;4990480;28;20033;-89
2022/07/22 12:20:50;;;;;;;3.72;0.80;;;23.70;87.50;;;;;;5014834;28;20030;-89
2022/07/22 12:23:16;;;;;;;3.60;0.60;;;23.70;87.80;;;;;;5012906;28;20489;-90
2022/07/22 12:25:56;;;;;;;3.20;0.75;;;23.90;87.30;;;;;;5001712;28;20088;-90
2022/07/22 12:28:22;;;;;;;2.88;0.63;;;24.00;86.40;;;;;;5015233;28;20033;-88
2022/07/22 12:30:50;;;;;;;3.60;0.70;;;24.20;87.10;;;;;;4996256;28;20022;-90
2022/07/22 12:33:17;;;;;;;3.85;0.60;;;24.50;85.70;;;;;;5000917;28;20030;-91
2022/07/22 12:35:43;;;;;;;2.97;0.60;;;24.50;84.90;;;;;;4993992;28;20038;-88
2022/07/22 12:38:10;;;;;;;2.63;0.60;;;24.40;85.30;;;;;;5015662;28;20030;-88
2022/07/22 12:40:38;;;;;;;3.33;1.00;;;24.50;84.50;;;;;;4999859;28;20062;-89
2022/07/22 12:43:05;;;;;;;1.88;0.73;;;24.50;82.80;;;;;;4999629;28;20022;-88